Time;durP1;ratioP1;P1;durP2;ratioP2;P2;SDS_P1;SDS_P2;PMS_P1;PMS_P2;Temp;Humidity;BMP_temperature;BMP_pressure;BME280_temperature;BME280_humidity;BME280_pressure;Samples;Min_cycle;Max_cycle;Signal;HPM_P1;HPM_P2
2022/01/28 00:01:44;;;;;;;;;33.25;30.25;;;;;;;;6301226;22;28240;-80
2022/01/28 00:04:14;;;;;;;;;50.50;34.00;;;;;;;;6329281;22;28934;-80
2022/01/28 00:06:40;;;;;;;;;47.25;33.00;;;;;;;;6300649;22;28483;-80
2022/01/28 00:09:05;;;;;;;;;32.25;27.25;;;;;;;;6329186;22;28443;-80
2022/01/28 00:11:30;;;;;;;;;44.33;32.00;;;;;;;;6301623;22;28329;-80
2022/01/28 00:14:10;;;;;;;;;41.50;30.50;;;;;;;;6329095;22;29317;-80
2022/01/28 00:17:05;;;;;;;;;54.25;33.75;;;;;;;;6328984;22;28274;-80
2022/01/28 00:38:31;;;;;;;;;42.75;31.75;;;;;;;;6329006;22;28280;-79
2022/01/28 00:40:56;;;;;;;;;46.25;34.50;;;;;;;;6329102;22;28392;-78
2022/01/28 00:43:21;;;;;;;;;50.50;33.00;;;;;;;;6301240;22;28444;-79
2022/01/28 00:45:47;;;;;;;;;41.00;28.00;;;;;;;;6329545;22;28303;-79
2022/01/28 00:48:12;;;;;;;;;40.25;27.00;;;;;;;;6328908;22;28227;-79
2022/01/28 00:50:37;;;;;;;;;36.33;29.67;;;;;;;;6329196;22;28465;-79
2022/01/28 00:53:03;;;;;;;;;35.00;29.50;;;;;;;;6329287;22;28176;-79
2022/01/28 00:55:28;;;;;;;;;35.67;29.33;;;;;;;;6301280;22;30459;-79
2022/01/28 00:57:53;;;;;;;;;44.75;32.50;;;;;;;;6329087;22;28226;-79
2022/01/28 01:00:18;;;;;;;;;44.33;27.67;;;;;;;;6329013;22;28209;-79
2022/01/28 01:02:44;;;;;;;;;46.00;31.00;;;;;;;;6329323;22;28192;-79
2022/01/28 01:05:09;;;;;;;;;41.75;31.50;;;;;;;;6300657;22;30849;-79
2022/01/28 01:07:34;;;;;;;;;45.75;32.00;;;;;;;;6300463;22;29302;-79
2022/01/28 01:10:00;;;;;;;;;40.75;33.00;;;;;;;;6329025;22;28195;-79
2022/01/28 01:12:27;;;;;;;;;50.33;35.33;;;;;;;;6301174;22;28392;-79
2022/01/28 01:14:53;;;;;;;;;43.00;32.50;;;;;;;;6300842;22;30230;-79
2022/01/28 01:17:29;;;;;;;;;48.50;32.25;;;;;;;;6329136;22;28938;-78
2022/01/28 01:20:10;;;;;;;;;40.75;33.50;;;;;;;;6328939;22;28252;-79
2022/01/28 01:22:38;;;;;;;;;41.75;32.50;;;;;;;;6329107;22;28199;-79
2022/01/28 01:25:13;;;;;;;;;47.25;32.50;;;;;;;;6329065;22;28501;-79
2022/01/28 01:27:39;;;;;;;;;43.25;31.25;;;;;;;;6330179;22;28283;-79
2022/01/28 01:30:04;;;;;;;;;42.67;28.33;;;;;;;;6330707;22;28321;-79
2022/01/28 01:32:29;;;;;;;;;40.00;32.25;;;;;;;;6302392;22;28789;-79
2022/01/28 01:34:54;;;;;;;;;52.67;34.67;;;;;;;;6302434;22;29668;-79
2022/01/28 01:37:20;;;;;;;;;50.33;37.33;;;;;;;;6330420;22;29309;-79
2022/01/28 01:39:45;;;;;;;;;47.00;35.50;;;;;;;;6330531;22;28461;-79
2022/01/28 01:42:30;;;;;;;;;39.33;32.67;;;;;;;;6330478;22;28490;-79
2022/01/28 01:53:14;;;;;;;;;47.00;35.25;;;;;;;;6330484;22;28242;-79
2022/01/28 01:55:39;;;;;;;;;41.67;30.00;;;;;;;;6330546;22;28235;-79
2022/01/28 01:58:04;;;;;;;;;46.50;35.50;;;;;;;;6330321;22;28164;-79
2022/01/28 02:00:30;;;;;;;;;51.50;37.50;;;;;;;;6329876;22;28169;-79
2022/01/28 02:02:55;;;;;;;;;50.00;37.00;;;;;;;;6330296;22;28192;-79
2022/01/28 02:05:20;;;;;;;;;51.00;36.33;;;;;;;;6330249;22;28216;-79
2022/01/28 02:07:46;;;;;;;;;40.50;33.00;;;;;;;;6330227;22;28161;-79
2022/01/28 02:10:11;;;;;;;;;47.75;35.00;;;;;;;;6302025;22;28230;-79
2022/01/28 02:12:46;;;;;;;;;57.50;39.75;;;;;;;;6330557;22;28314;-79
2022/01/28 02:15:12;;;;;;;;;48.50;37.25;;;;;;;;6330073;22;29238;-79
2022/01/28 02:17:37;;;;;;;;;50.50;40.00;;;;;;;;6329986;22;28235;-79
2022/01/28 02:20:02;;;;;;;;;54.67;39.00;;;;;;;;6300694;22;28737;-79
2022/01/28 02:22:27;;;;;;;;;40.00;33.75;;;;;;;;6330071;22;28168;-79
2022/01/28 02:24:53;;;;;;;;;49.25;36.75;;;;;;;;6330676;22;28414;-79
2022/01/28 02:27:18;;;;;;;;;47.67;35.67;;;;;;;;6302225;22;28410;-79
2022/01/28 02:29:45;;;;;;;;;54.33;37.67;;;;;;;;6330361;22;28256;-79
2022/01/28 02:32:10;;;;;;;;;50.00;33.00;;;;;;;;6330087;22;28495;-79
2022/01/28 02:34:38;;;;;;;;;44.50;36.75;;;;;;;;6329832;22;29681;-79
2022/01/28 02:37:04;;;;;;;;;49.00;38.00;;;;;;;;6329690;22;28235;-79
2022/01/28 02:39:29;;;;;;;;;49.25;33.75;;;;;;;;6329970;22;28579;-79
2022/01/28 02:42:02;;;;;;;;;43.25;33.25;;;;;;;;6330304;22;28275;-79
2022/01/28 02:47:15;;;;;;;;;53.25;36.50;;;;;;;;6330223;22;28539;-79
2022/01/28 02:49:42;;;;;;;;;44.00;32.50;;;;;;;;6329573;22;28350;-79
2022/01/28 02:52:17;;;;;;;;;45.75;34.00;;;;;;;;6329574;22;28318;-79
2022/01/28 02:54:46;;;;;;;;;53.25;33.75;;;;;;;;6329978;22;28478;-80
2022/01/28 02:57:11;;;;;;;;;44.00;28.75;;;;;;;;6329720;22;28259;-79
2022/01/28 02:59:36;;;;;;;;;41.33;33.33;;;;;;;;6301961;22;28517;-79
2022/01/28 03:02:01;;;;;;;;;35.67;28.67;;;;;;;;6329691;22;28317;-79
2022/01/28 03:06:58;;;;;;;;;37.50;30.25;;;;;;;;6329535;22;28604;-79
2022/01/28 03:09:23;;;;;;;;;38.67;25.33;;;;;;;;6330196;22;28839;-79
2022/01/28 03:12:10;;;;;;;;;48.33;32.33;;;;;;;;6330038;22;28463;-78
2022/01/28 03:14:48;;;;;;;;;51.75;35.50;;;;;;;;6329476;22;28326;-79
2022/01/28 03:17:37;;;;;;;;;32.75;23.75;;;;;;;;6330029;22;28243;-79
2022/01/28 03:20:36;;;;;;;;;46.00;30.75;;;;;;;;6329182;22;28464;-79
2022/01/28 03:23:01;;;;;;;;;41.25;28.50;;;;;;;;6301699;22;28433;-79
2022/01/28 03:25:26;;;;;;;;;34.75;30.25;;;;;;;;6330041;22;28306;-79
2022/01/28 03:27:55;;;;;;;;;47.00;31.25;;;;;;;;6329629;22;28188;-79
2022/01/28 03:30:20;;;;;;;;;36.00;24.25;;;;;;;;6301822;22;28315;-79
2022/01/28 03:32:46;;;;;;;;;27.50;23.50;;;;;;;;6329982;22;28287;-79
2022/01/28 03:35:14;;;;;;;;;40.50;29.25;;;;;;;;6301498;22;29667;-79
2022/01/28 03:37:39;;;;;;;;;47.50;33.00;;;;;;;;6329089;22;28409;-79
2022/01/28 03:40:06;;;;;;;;;40.25;28.75;;;;;;;;6330142;22;28342;-79
2022/01/28 03:42:32;;;;;;;;;36.75;25.25;;;;;;;;6329741;22;28401;-79
2022/01/28 03:44:57;;;;;;;;;32.75;25.50;;;;;;;;6301769;22;29837;-79
2022/01/28 03:47:22;;;;;;;;;36.33;26.00;;;;;;;;6329962;22;28404;-79
2022/01/28 03:49:47;;;;;;;;;43.67;26.00;;;;;;;;6328987;22;28302;-79
2022/01/28 03:52:13;;;;;;;;;44.00;28.33;;;;;;;;6301769;22;28584;-79
2022/01/28 03:54:38;;;;;;;;;41.67;27.67;;;;;;;;6329521;22;28475;-79
2022/01/28 03:57:04;;;;;;;;;48.67;33.33;;;;;;;;6329875;22;28267;-78
2022/01/28 03:59:30;;;;;;;;;40.25;31.75;;;;;;;;6301496;22;28199;-79
2022/01/28 04:01:55;;;;;;;;;46.50;30.50;;;;;;;;6329214;22;28249;-79
2022/01/28 04:12:01;;;;;;;;;44.50;30.00;;;;;;;;6329540;22;28279;-79
2022/01/28 04:17:40;;;;;;;;;45.25;36.50;;;;;;;;6329640;22;28184;-79
2022/01/28 04:19:40;;;;;;;;;49.25;38.50;;;;;;;;6317035;22;29226;-78
2022/01/28 04:22:05;;;;;;;;;54.00;40.67;;;;;;;;6329273;22;28311;-79
2022/01/28 04:24:30;;;;;;;;;59.00;42.50;;;;;;;;6329574;22;28149;-79
2022/01/28 04:26:56;;;;;;;;;66.00;45.67;;;;;;;;6301614;22;28535;-79
2022/01/28 04:29:21;;;;;;;;;63.67;42.00;;;;;;;;6301365;22;28196;-79
2022/01/28 04:31:47;;;;;;;;;62.33;42.00;;;;;;;;6329837;22;28278;-79
2022/01/28 04:34:13;;;;;;;;;55.25;40.50;;;;;;;;6301244;22;30335;-78
2022/01/28 04:37:02;;;;;;;;;59.75;41.00;;;;;;;;6329408;22;28405;-79
2022/01/28 04:39:37;;;;;;;;;66.75;43.75;;;;;;;;6329685;22;28263;-79
2022/01/28 04:47:27;;;;;;;;;60.00;42.75;;;;;;;;6329305;22;28367;-79
2022/01/28 04:50:34;;;;;;;;;57.75;39.25;;;;;;;;6329621;22;28370;-79
2022/01/28 05:17:06;;;;;;;;;54.25;39.75;;;;;;;;6330263;22;28289;-78
2022/01/28 05:27:17;;;;;;;;;58.00;41.50;;;;;;;;6330341;22;28496;-78
2022/01/28 05:29:42;;;;;;;;;53.75;38.75;;;;;;;;6330413;22;28588;-79
2022/01/28 05:32:08;;;;;;;;;55.33;38.00;;;;;;;;6330667;22;28257;-79
2022/01/28 05:34:34;;;;;;;;;42.75;33.25;;;;;;;;6330522;22;28481;-78
2022/01/28 05:36:59;;;;;;;;;47.50;36.25;;;;;;;;6330101;22;28236;-78
2022/01/28 05:39:24;;;;;;;;;44.00;34.33;;;;;;;;6330240;22;28271;-78
2022/01/28 05:41:50;;;;;;;;;32.00;26.50;;;;;;;;6330891;22;28290;-79
2022/01/28 05:44:15;;;;;;;;;32.75;26.25;;;;;;;;6331735;22;28529;-78
2022/01/28 05:46:40;;;;;;;;;31.75;27.25;;;;;;;;6303258;22;29771;-78
2022/01/28 05:49:06;;;;;;;;;44.00;30.50;;;;;;;;6330360;22;28311;-79
2022/01/28 05:51:31;;;;;;;;;42.75;30.50;;;;;;;;6330229;22;28315;-78
2022/01/28 05:53:59;;;;;;;;;43.33;32.00;;;;;;;;6302161;22;28173;-79
2022/01/28 05:56:25;;;;;;;;;38.75;29.00;;;;;;;;6329972;22;28612;-79
2022/01/28 05:58:51;;;;;;;;;51.25;32.00;;;;;;;;6301045;22;28479;-79
2022/01/28 06:01:16;;;;;;;;;42.50;25.50;;;;;;;;6329429;22;28525;-79
2022/01/28 06:03:44;;;;;;;;;40.67;31.33;;;;;;;;6302034;22;28642;-79
2022/01/28 06:06:13;;;;;;;;;53.00;34.00;;;;;;;;6329789;22;29083;-80
2022/01/28 06:08:38;;;;;;;;;47.50;30.25;;;;;;;;6301871;22;28951;-81
2022/01/28 06:11:03;;;;;;;;;44.67;35.00;;;;;;;;6330354;22;28448;-80
2022/01/28 06:13:28;;;;;;;;;55.00;38.00;;;;;;;;6329694;22;28416;-81
2022/01/28 06:15:58;;;;;;;;;63.75;43.00;;;;;;;;6329775;22;29332;-81
2022/01/28 06:18:23;;;;;;;;;61.50;46.25;;;;;;;;6331788;22;28553;-81
2022/01/28 06:20:48;;;;;;;;;67.33;50.00;;;;;;;;6301371;22;28242;-82
2022/01/28 06:23:13;;;;;;;;;60.33;42.67;;;;;;;;6329963;22;28340;-81
2022/01/28 06:25:39;;;;;;;;;68.33;49.00;;;;;;;;6330053;22;28569;-81
2022/01/28 06:28:04;;;;;;;;;65.75;47.50;;;;;;;;6329420;22;28381;-80
2022/01/28 06:30:30;;;;;;;;;59.50;46.75;;;;;;;;6301983;22;28283;-80
2022/01/28 06:32:55;;;;;;;;;66.00;46.75;;;;;;;;6330072;22;28179;-79
2022/01/28 06:35:20;;;;;;;;;60.00;44.67;;;;;;;;6301454;22;28425;-80
2022/01/28 06:37:46;;;;;;;;;56.50;39.50;;;;;;;;6301932;22;28556;-80
2022/01/28 06:40:13;;;;;;;;;57.75;43.00;;;;;;;;6330303;22;28236;-82
2022/01/28 06:42:40;;;;;;;;;61.75;43.00;;;;;;;;6329311;22;28236;-82
2022/01/28 06:45:30;;;;;;;;;48.00;37.75;;;;;;;;6300546;22;29960;-84
2022/01/28 06:47:58;;;;;;;;;51.75;39.50;;;;;;;;6329317;22;28260;-85
2022/01/28 06:50:23;;;;;;;;;60.75;42.00;;;;;;;;6329035;22;28370;-82
2022/01/28 06:52:48;;;;;;;;;56.67;43.67;;;;;;;;6329230;22;28439;-82
2022/01/28 06:55:16;;;;;;;;;62.33;44.33;;;;;;;;6301606;22;29760;-83
2022/01/28 06:57:41;;;;;;;;;62.25;43.50;;;;;;;;6329728;22;28365;-84
2022/01/28 07:00:07;;;;;;;;;62.25;46.50;;;;;;;;6330253;22;28357;-84
2022/01/28 07:02:32;;;;;;;;;61.50;46.00;;;;;;;;6329669;22;28444;-84
2022/01/28 07:04:59;;;;;;;;;65.67;45.67;;;;;;;;6301349;22;29774;-84
2022/01/28 07:07:25;;;;;;;;;63.50;46.25;;;;;;;;6301622;22;28501;-85
2022/01/28 07:09:51;;;;;;;;;62.75;43.00;;;;;;;;6300792;22;28303;-84
2022/01/28 07:12:17;;;;;;;;;62.50;40.25;;;;;;;;6329593;22;28184;-84
2022/01/28 07:14:45;;;;;;;;;64.75;46.50;;;;;;;;6329687;22;28227;-84
2022/01/28 07:17:10;;;;;;;;;61.25;44.50;;;;;;;;6329262;22;28713;-82
2022/01/28 07:19:35;;;;;;;;;66.00;44.75;;;;;;;;6301431;22;28267;-81
2022/01/28 07:22:01;;;;;;;;;63.25;43.25;;;;;;;;6300754;22;28350;-85
2022/01/28 07:24:26;;;;;;;;;57.50;42.50;;;;;;;;6329605;22;28345;-85
2022/01/28 07:26:51;;;;;;;;;59.67;46.00;;;;;;;;6329691;22;28940;-86
2022/01/28 07:29:17;;;;;;;;;59.00;43.00;;;;;;;;6329515;22;28342;-86
2022/01/28 07:31:43;;;;;;;;;60.00;44.75;;;;;;;;6301110;22;28366;-85
2022/01/28 07:34:08;;;;;;;;;70.00;48.50;;;;;;;;6301658;22;29658;-86
2022/01/28 07:36:34;;;;;;;;;61.75;42.75;;;;;;;;6329213;22;28362;-85
2022/01/28 07:38:59;;;;;;;;;73.50;47.75;;;;;;;;6329003;22;28512;-85
2022/01/28 07:41:25;;;;;;;;;62.50;46.00;;;;;;;;6328087;22;28441;-85
2022/01/28 07:43:50;;;;;;;;;63.00;42.75;;;;;;;;6328721;22;28964;-85
2022/01/28 07:46:16;;;;;;;;;58.25;41.75;;;;;;;;6328090;22;28367;-84
2022/01/28 07:48:41;;;;;;;;;62.00;45.00;;;;;;;;6326820;22;28314;-85
2022/01/28 07:51:06;;;;;;;;;63.75;44.75;;;;;;;;6327446;22;28389;-85
2022/01/28 07:53:32;;;;;;;;;60.00;46.00;;;;;;;;6327458;22;28254;-84
2022/01/28 07:55:57;;;;;;;;;60.75;49.00;;;;;;;;6300220;22;28334;-85
2022/01/28 07:58:22;;;;;;;;;66.25;46.25;;;;;;;;6329299;22;28275;-85
2022/01/28 08:00:48;;;;;;;;;58.25;45.00;;;;;;;;6329070;22;28433;-85
2022/01/28 08:03:13;;;;;;;;;61.50;43.25;;;;;;;;6329085;22;28179;-85
2022/01/28 08:05:38;;;;;;;;;58.67;41.33;;;;;;;;6328952;22;28188;-85
2022/01/28 08:08:05;;;;;;;;;55.50;41.00;;;;;;;;6328204;22;28500;-85
2022/01/28 08:10:32;;;;;;;;;30.50;14.25;;;;;;;;6329365;22;28286;-82
2022/01/28 08:13:00;;;;;;;;;54.50;39.25;;;;;;;;6301576;22;29645;-83
2022/01/28 08:15:26;;;;;;;;;56.00;42.75;;;;;;;;6329300;22;28563;-83
2022/01/28 08:17:51;;;;;;;;;61.75;43.25;;;;;;;;6329125;22;28318;-83
2022/01/28 08:20:16;;;;;;;;;51.00;38.67;;;;;;;;6329206;22;28267;-83
2022/01/28 08:22:44;;;;;;;;;48.33;39.00;;;;;;;;6300732;22;28335;-83
2022/01/28 08:25:09;;;;;;;;;56.25;36.50;;;;;;;;6301606;22;28345;-83
2022/01/28 08:27:35;;;;;;;;;45.50;36.50;;;;;;;;6329234;22;28267;-82
2022/01/28 08:30:00;;;;;;;;;48.00;35.33;;;;;;;;6301096;22;28630;-82
2022/01/28 08:32:27;;;;;;;;;53.00;34.50;;;;;;;;6329887;22;28366;-83
2022/01/28 08:34:53;;;;;;;;;48.00;34.25;;;;;;;;6328694;22;28407;-84
2022/01/28 08:37:19;;;;;;;;;48.50;35.50;;;;;;;;6330593;22;28302;-84
2022/01/28 08:39:44;;;;;;;;;49.00;30.00;;;;;;;;6333974;22;28162;-83
2022/01/28 08:42:09;;;;;;;;;39.33;31.33;;;;;;;;6331231;22;28498;-84
2022/01/28 08:44:34;;;;;;;;;34.25;28.00;;;;;;;;6302796;22;28172;-84
2022/01/28 08:47:00;;;;;;;;;51.25;33.00;;;;;;;;6329707;22;28240;-83
2022/01/28 08:49:25;;;;;;;;;51.33;36.67;;;;;;;;6329047;22;28285;-83
2022/01/28 08:51:50;;;;;;;;;39.00;27.33;;;;;;;;6329978;22;29610;-84
2022/01/28 08:54:16;;;;;;;;;38.50;29.50;;;;;;;;6330922;22;28199;-84
2022/01/28 08:56:41;;;;;;;;;49.25;35.00;;;;;;;;6331031;22;28251;-84
2022/01/28 08:59:06;;;;;;;;;30.75;27.75;;;;;;;;6302548;22;28319;-84
2022/01/28 09:01:32;;;;;;;;;51.00;35.33;;;;;;;;6329896;22;29130;-84
2022/01/28 09:03:57;;;;;;;;;46.50;32.50;;;;;;;;6330430;22;28226;-84
2022/01/28 09:06:22;;;;;;;;;35.67;31.33;;;;;;;;6302455;22;28543;-83
2022/01/28 09:08:49;;;;;;;;;41.00;30.33;;;;;;;;6330412;22;28215;-83
2022/01/28 09:13:49;;;;;;;;;44.75;35.25;;;;;;;;6330140;22;28430;-84
2022/01/28 09:16:14;;;;;;;;;52.50;32.25;;;;;;;;6302124;22;28406;-84
2022/01/28 09:18:40;;;;;;;;;38.50;30.75;;;;;;;;6329648;22;28439;-84
2022/01/28 09:21:05;;;;;;;;;41.75;30.25;;;;;;;;6301888;22;30113;-84
2022/01/28 09:23:31;;;;;;;;;39.50;26.50;;;;;;;;6330410;22;28378;-83
2022/01/28 09:25:56;;;;;;;;;41.75;27.25;;;;;;;;6302515;22;28341;-83
2022/01/28 09:28:21;;;;;;;;;44.25;32.25;;;;;;;;6302459;22;28557;-83
2022/01/28 09:30:47;;;;;;;;;35.25;29.25;;;;;;;;6329088;22;28311;-84
2022/01/28 09:33:12;;;;;;;;;34.75;26.25;;;;;;;;6329986;22;28271;-83
2022/01/28 09:35:38;;;;;;;;;36.25;28.75;;;;;;;;6301772;22;28484;-83
2022/01/28 09:38:03;;;;;;;;;41.50;28.75;;;;;;;;6302290;22;28383;-84
2022/01/28 09:40:29;;;;;;;;;36.75;25.75;;;;;;;;6330734;22;28318;-83
2022/01/28 09:42:54;;;;;;;;;33.00;21.25;;;;;;;;6330476;22;27742;-83
2022/01/28 09:45:22;;;;;;;;;36.25;26.00;;;;;;;;6302204;22;28224;-83
2022/01/28 09:47:49;;;;;;;;;36.00;28.25;;;;;;;;6329596;22;28180;-83
2022/01/28 09:50:14;;;;;;;;;42.00;28.25;;;;;;;;6300472;22;30653;-83
2022/01/28 09:52:40;;;;;;;;;39.50;27.50;;;;;;;;6330708;22;28338;-84
2022/01/28 09:55:05;;;;;;;;;36.25;25.50;;;;;;;;6330880;22;28267;-83
2022/01/28 09:57:32;;;;;;;;;38.25;26.50;;;;;;;;6330771;22;28382;-83
2022/01/28 09:59:57;;;;;;;;;40.00;27.50;;;;;;;;6332712;22;28412;-83
2022/01/28 10:02:42;;;;;;;;;46.75;28.75;;;;;;;;6302559;22;28823;-83
2022/01/28 10:05:18;;;;;;;;;32.25;24.25;;;;;;;;6330485;22;28402;-83
2022/01/28 10:08:02;;;;;;;;;36.00;24.25;;;;;;;;6302065;22;28735;-83
2022/01/28 10:10:40;;;;;;;;;29.25;25.75;;;;;;;;6330120;22;29462;-83
2022/01/28 10:13:14;;;;;;;;;32.00;26.00;;;;;;;;6330690;22;28271;-84
2022/01/28 10:15:58;;;;;;;;;37.50;28.00;;;;;;;;6330687;22;28283;-84
2022/01/28 10:18:44;;;;;;;;;39.75;27.25;;;;;;;;6303207;22;28501;-84
2022/01/28 10:21:18;;;;;;;;;37.50;24.75;;;;;;;;6329175;22;29095;-84
2022/01/28 10:24:04;;;;;;;;;25.75;22.25;;;;;;;;6330510;22;28409;-84
2022/01/28 10:26:30;;;;;;;;;39.00;26.50;;;;;;;;6318418;22;28367;-84
2022/01/28 10:28:56;;;;;;;;;34.75;27.75;;;;;;;;6330295;22;28345;-84
2022/01/28 10:31:21;;;;;;;;;37.00;22.00;;;;;;;;6330419;22;29070;-84
2022/01/28 10:33:47;;;;;;;;;31.00;18.50;;;;;;;;6330435;22;28327;-84
2022/01/28 10:36:22;;;;;;;;;33.33;23.00;;;;;;;;6329900;22;28295;-84
2022/01/28 10:38:47;;;;;;;;;36.00;26.25;;;;;;;;6330153;22;28255;-83
2022/01/28 10:41:18;;;;;;;;;40.75;27.25;;;;;;;;6330130;22;28290;-84
2022/01/28 10:43:51;;;;;;;;;33.75;22.25;;;;;;;;6302319;22;29453;-84
2022/01/28 10:46:27;;;;;;;;;38.75;24.00;;;;;;;;6328968;22;28295;-84
2022/01/28 10:48:54;;;;;;;;;30.50;22.25;;;;;;;;6328980;22;28378;-84
2022/01/28 10:51:20;;;;;;;;;29.25;21.00;;;;;;;;6329990;22;28425;-84
2022/01/28 10:54:04;;;;;;;;;31.75;19.00;;;;;;;;6330459;22;28251;-84
2022/01/28 10:56:29;;;;;;;;;27.25;19.25;;;;;;;;6330250;22;28507;-84
2022/01/28 10:58:55;;;;;;;;;26.75;19.50;;;;;;;;6300364;22;28302;-84
2022/01/28 11:01:22;;;;;;;;;25.75;20.00;;;;;;;;6329428;22;28373;-84
2022/01/28 11:03:47;;;;;;;;;34.75;22.00;;;;;;;;6329194;22;28384;-83
2022/01/28 11:06:13;;;;;;;;;26.25;19.75;;;;;;;;6329958;22;28279;-84
2022/01/28 11:08:38;;;;;;;;;32.50;21.50;;;;;;;;6329940;22;28298;-84
2022/01/28 11:11:04;;;;;;;;;35.25;24.75;;;;;;;;6329694;22;28444;-84
2022/01/28 11:13:29;;;;;;;;;33.25;23.75;;;;;;;;6330206;22;28436;-84
2022/01/28 11:15:55;;;;;;;;;33.50;22.75;;;;;;;;6330198;22;28177;-84
2022/01/28 11:18:20;;;;;;;;;31.75;24.25;;;;;;;;6301646;22;28362;-84
2022/01/28 11:20:50;;;;;;;;;31.50;25.00;;;;;;;;6329697;22;28460;-84
2022/01/28 11:23:35;;;;;;;;;24.25;20.00;;;;;;;;6302141;22;28272;-84
2022/01/28 11:26:07;;;;;;;;;32.75;24.50;;;;;;;;6329426;22;28251;-82
2022/01/28 11:28:42;;;;;;;;;28.25;24.25;;;;;;;;6329715;22;28534;-84
2022/01/28 11:31:07;;;;;;;;;25.50;23.75;;;;;;;;6334185;22;28302;-84
2022/01/28 11:33:47;;;;;;;;;33.25;21.00;;;;;;;;6330958;22;28419;-83
2022/01/28 11:36:13;;;;;;;;;33.75;26.00;;;;;;;;6331255;22;28267;-84
2022/01/28 11:38:50;;;;;;;;;31.75;21.75;;;;;;;;6330461;22;28275;-85
2022/01/28 11:41:18;;;;;;;;;27.00;22.50;;;;;;;;6301788;22;28508;-84
2022/01/28 11:43:47;;;;;;;;;29.50;22.25;;;;;;;;6328902;22;28341;-84
2022/01/28 11:46:18;;;;;;;;;25.00;20.75;;;;;;;;6300438;22;28323;-85
2022/01/28 11:48:54;;;;;;;;;30.00;25.25;;;;;;;;6329300;22;28246;-85
2022/01/28 11:51:27;;;;;;;;;34.00;25.75;;;;;;;;6329411;22;28335;-85
2022/01/28 11:53:54;;;;;;;;;36.75;28.00;;;;;;;;6325918;22;28968;-85
2022/01/28 11:56:22;;;;;;;;;27.75;22.00;;;;;;;;6328800;22;28196;-85
2022/01/28 11:58:54;;;;;;;;;34.75;26.50;;;;;;;;6327608;22;28507;-86
2022/01/28 12:01:43;;;;;;;;;32.50;26.25;;;;;;;;6328147;22;28445;-86
2022/01/28 12:04:21;;;;;;;;;40.00;29.50;;;;;;;;6298884;22;28465;-86
2022/01/28 12:06:55;;;;;;;;;29.75;25.00;;;;;;;;6300337;22;28496;-83
2022/01/28 12:09:28;;;;;;;;;27.00;24.00;;;;;;;;6296580;22;28500;-86
2022/01/28 12:11:53;;;;;;;;;31.50;20.25;;;;;;;;6300024;22;29962;-86
2022/01/28 12:14:39;;;;;;;;;31.00;23.25;;;;;;;;6301296;22;28425;-86
2022/01/28 12:17:23;;;;;;;;;25.25;23.25;;;;;;;;6317668;22;28417;-87
2022/01/28 12:20:08;;;;;;;;;39.00;28.50;;;;;;;;6300895;22;28755;-86
2022/01/28 12:22:33;;;;;;;;;37.75;21.25;;;;;;;;6301223;22;28715;-86
2022/01/28 12:24:59;;;;;;;;;30.50;18.25;;;;;;;;6329908;22;28294;-86
2022/01/28 12:27:35;;;;;;;;;30.00;17.33;;;;;;;;6301463;22;28449;-87
2022/01/28 12:30:12;;;;;;;;;35.50;24.50;;;;;;;;6329464;22;28394;-87
2022/01/28 12:32:40;;;;;;;;;38.25;22.00;;;;;;;;6329675;22;28536;-86
2022/01/28 12:35:08;;;;;;;;;30.25;23.25;;;;;;;;6300657;22;28354;-86
2022/01/28 12:37:42;;;;;;;;;25.75;21.50;;;;;;;;6328877;22;28346;-86
2022/01/28 12:40:23;;;;;;;;;33.50;22.75;;;;;;;;6328637;22;28253;-86
2022/01/28 12:42:51;;;;;;;;;29.25;19.25;;;;;;;;6301052;22;30770;-86
2022/01/28 12:45:19;;;;;;;;;28.25;20.00;;;;;;;;6301504;22;28720;-86
2022/01/28 12:47:47;;;;;;;;;28.25;19.00;;;;;;;;6301080;22;28512;-86
2022/01/28 12:50:12;;;;;;;;;29.00;22.00;;;;;;;;6328236;22;28687;-86
2022/01/28 12:52:40;;;;;;;;;21.75;18.25;;;;;;;;6329431;22;28404;-86
2022/01/28 12:55:06;;;;;;;;;34.75;21.50;;;;;;;;6329383;22;28234;-86
2022/01/28 12:57:34;;;;;;;;;27.00;19.25;;;;;;;;6300341;22;28388;-86
2022/01/28 13:00:00;;;;;;;;;31.50;22.00;;;;;;;;6300228;22;29057;-86
2022/01/28 13:02:32;;;;;;;;;27.50;20.00;;;;;;;;6300295;22;29654;-86
2022/01/28 13:10:50;;;;;;;;;24.50;19.75;;;;;;;;6203339;23;28494;-85
2022/01/28 13:13:42;;;;;;;;;27.00;19.50;;;;;;;;6318605;22;28441;-85
2022/01/28 13:16:07;;;;;;;;;25.50;16.25;;;;;;;;6329153;22;28395;-86
2022/01/28 13:18:53;;;;;;;;;35.00;22.00;;;;;;;;6329333;22;28259;-85
2022/01/28 13:21:47;;;;;;;;;29.00;23.50;;;;;;;;6327351;22;28335;-83
2022/01/28 13:24:48;;;;;;;;;30.25;22.25;;;;;;;;6323020;22;28593;-83
2022/01/28 13:27:14;;;;;;;;;35.50;26.00;;;;;;;;6300746;22;28743;-85
2022/01/28 13:29:39;;;;;;;;;36.50;24.00;;;;;;;;6299860;22;28387;-85
2022/01/28 13:32:08;;;;;;;;;30.67;23.33;;;;;;;;6300825;22;28503;-85
2022/01/28 13:34:46;;;;;;;;;32.00;27.75;;;;;;;;6329590;22;29297;-85
2022/01/28 13:37:11;;;;;;;;;34.75;24.50;;;;;;;;6302068;22;29371;-85
2022/01/28 13:39:41;;;;;;;;;31.50;23.50;;;;;;;;6302530;22;28196;-85
2022/01/28 13:42:08;;;;;;;;;31.75;22.00;;;;;;;;6302203;22;29593;-85
2022/01/28 13:44:34;;;;;;;;;24.00;23.75;;;;;;;;6330389;22;28353;-86
2022/01/28 13:47:01;;;;;;;;;33.50;23.75;;;;;;;;6330199;22;28454;-85
2022/01/28 13:49:28;;;;;;;;;27.75;20.75;;;;;;;;6300743;22;28433;-85
2022/01/28 13:51:53;;;;;;;;;27.50;23.25;;;;;;;;6329090;22;28432;-85
2022/01/28 13:54:29;;;;;;;;;28.75;22.50;;;;;;;;6301947;22;28552;-85
2022/01/28 13:56:59;;;;;;;;;29.50;23.25;;;;;;;;6330614;22;28176;-85
2022/01/28 13:59:29;;;;;;;;;27.75;23.25;;;;;;;;6329979;22;28418;-85
2022/01/28 14:01:56;;;;;;;;;24.75;21.50;;;;;;;;6301933;22;29247;-85
2022/01/28 14:04:33;;;;;;;;;34.75;22.75;;;;;;;;6330242;22;28288;-85
2022/01/28 14:07:09;;;;;;;;;25.75;20.00;;;;;;;;6329757;22;28179;-85
2022/01/28 14:09:44;;;;;;;;;25.25;22.25;;;;;;;;6302024;22;28481;-85
2022/01/28 14:12:13;;;;;;;;;32.50;21.00;;;;;;;;6329271;22;28431;-85
2022/01/28 14:14:45;;;;;;;;;32.75;22.25;;;;;;;;6302104;22;31075;-85
2022/01/28 14:17:11;;;;;;;;;32.75;22.50;;;;;;;;6330280;22;28401;-85
2022/01/28 14:19:37;;;;;;;;;33.25;23.00;;;;;;;;6301880;22;28417;-84
2022/01/28 14:22:05;;;;;;;;;32.50;22.25;;;;;;;;6329672;22;28359;-85
2022/01/28 14:24:31;;;;;;;;;25.50;19.00;;;;;;;;6301083;22;30563;-85
2022/01/28 14:32:11;;;;;;;;;26.50;17.50;;;;;;;;6328732;22;28459;-85
2022/01/28 14:34:37;;;;;;;;;30.50;22.25;;;;;;;;6329786;22;28423;-85
2022/01/28 14:37:03;;;;;;;;;36.50;21.50;;;;;;;;6329495;22;28386;-85
2022/01/28 14:39:29;;;;;;;;;29.75;22.50;;;;;;;;6330344;22;28359;-85
2022/01/28 14:42:01;;;;;;;;;29.00;19.25;;;;;;;;6301964;22;28277;-86
2022/01/28 14:44:27;;;;;;;;;24.25;19.50;;;;;;;;6330573;22;29385;-85
2022/01/28 14:46:52;;;;;;;;;24.25;18.50;;;;;;;;6302910;22;28462;-85
2022/01/28 14:49:17;;;;;;;;;19.75;17.25;;;;;;;;6330529;22;28326;-85
2022/01/28 14:51:50;;;;;;;;;23.50;18.50;;;;;;;;6301752;22;28442;-85
2022/01/28 14:54:15;;;;;;;;;18.25;15.00;;;;;;;;6330655;22;28543;-85
2022/01/28 14:57:13;;;;;;;;;;;;;;;;;;;;;
2022/01/28 15:03:02;;;;;;;;;;;;;;;;;;;;;
2022/01/28 15:05:29;;;;;;;;;27.75;19.50;;;;;;;;6361328;22;57513;-81
2022/01/28 15:07:54;;;;;;;;;27.25;19.50;;;;;;;;6351676;22;28200;-81
2022/01/28 15:10:32;;;;;;;;;23.00;18.00;;;;;;;;6330864;22;28222;-80
2022/01/28 15:13:11;;;;;;;;;32.75;17.75;;;;;;;;6341050;22;27885;-81
2022/01/28 15:15:47;;;;;;;;;25.00;17.50;;;;;;;;6337546;22;28476;-81
2022/01/28 15:18:17;;;;;;;;;28.00;20.50;;;;;;;;6327610;22;28515;-81
2022/01/28 15:21:05;;;;;;;;;21.25;16.00;;;;;;;;6300689;22;28542;-81
2022/01/28 15:23:40;;;;;;;;;;;;;;;;;;;;;
2022/01/28 15:26:06;;;;;;;;;24.75;21.50;;;;;;;;6327489;22;58304;-82
2022/01/28 15:28:37;;;;;;;;;21.50;17.50;;;;;;;;6328484;22;28477;-81
2022/01/28 15:36:38;;;;;;;;;20.75;15.50;;;;;;;;6329331;22;28460;-81
2022/01/28 15:39:03;;;;;;;;;27.00;20.00;;;;;;;;6327793;22;28430;-82
2022/01/28 15:41:28;;;;;;;;;27.00;21.00;;;;;;;;6329669;22;28246;-82
2022/01/28 15:43:54;;;;;;;;;23.50;17.25;;;;;;;;6329809;22;28319;-81
2022/01/28 15:46:19;;;;;;;;;25.75;17.75;;;;;;;;6300367;22;29756;-81
2022/01/28 15:48:47;;;;;;;;;23.75;15.50;;;;;;;;6329105;22;28528;-81
2022/01/28 15:51:21;;;;;;;;;27.00;18.25;;;;;;;;6328952;22;28441;-81
2022/01/28 15:53:49;;;;;;;;;21.50;14.50;;;;;;;;6329030;22;28322;-81
2022/01/28 15:56:17;;;;;;;;;21.00;15.50;;;;;;;;6329688;22;28497;-81
2022/01/28 15:58:43;;;;;;;;;17.75;15.75;;;;;;;;6301062;22;28892;-81
2022/01/28 16:01:08;;;;;;;;;26.00;17.00;;;;;;;;6301540;22;28256;-81
2022/01/28 16:04:07;;;;;;;;;10.00;10.00;;;;;;;;6328989;22;28279;-81
2022/01/28 16:06:52;;;;;;;;;;;;;;;;;;;;;
2022/01/28 16:09:39;;;;;;;;;23.00;16.00;;;;;;;;6327528;22;57018;-79
2022/01/28 16:12:07;;;;;;;;;20.75;16.00;;;;;;;;6274795;22;28302;-79
2022/01/28 16:14:45;;;;;;;;;25.00;20.25;;;;;;;;6300852;22;28560;-81